KMGC/MGC METAR and TAF weather

Enter ICAO airport designator
Station Type Date Time Source
KMGC METAR 2020/07/07 10:15 UTC NOAA

KMGC 071015Z AUTO 00000KT 10SM CLR 19/19 A2999 RMK AO2


Station Type Date Time Source
KMGC Decoded METAR 2020/07/07 10:15 UTC NOAA

Station name not available
Jul 07, 2020 - 06:15 AM EDT / 2020.07.07 1015 UTC
Wind: Calm:0
Visibility: 10 mile(s):0
Sky conditions: clear
Temperature: 66 F (19 C)
Dew Point: 66 F (19 C)
Relative Humidity: 100%
Pressure (altimeter): 29.99 in. Hg (1015 hPa)
ob: KMGC 071015Z AUTO 00000KT 10SM CLR 19/19 A2999 RMK AO2
cycle: 10

Station Type Date Time Source
KMGC TAF UTC NOAA

Error!

Example: see airport list